Terminal Aerodrome Forecast
Issued by NWS Blacksburg, VA

Current Version | Previous Version | Graphics & Text | Print | Product List | Glossary On
Versions: 1 2 3 4 5 6 7 8 9 10 11 12 13 14 15 16 17 18 19 20 21 22 23 24 25 26 27 28 29 30 31 32 33 34 35 36 37 38 39 40 41
000
FTUS41 KRNK 022340
TAFBLF
TAF
KBLF 022340Z 0300/0324 VRB04KT P6SM FEW005 SCT011 BKN040
      TEMPO 0300/0303 BKN011
     FM030300 12005KT 5SM BR OVC011
     FM030600 12004KT 4SM BR VCSH OVC007
     FM031200 12005KT 3SM -RA BR OVC009
     FM031700 12006KT 6SM BR VCSH OVC015=

USA.gov is the U.S. government's official web portal to all federal, state and local government web resources and services.